Allenhurst, Georgia
Current Conditions -  °F | °C
As of 12:58 PM on Friday 19 Dec 2014 (Local Time) from KLHW Reporting Station
Broken Clouds Broken Clouds  
Wind Chill: 59°   Ceiling: 20000
Heat Index: 59°   Visibility: 10mi
Dew Point: 42°   Wind: 0mph
Humidity: 53%   Direction: NA
Pressure: 30.1"   Gusts: NA
Location:  31.78°N, 81.61°W
Report Text: KLHW 191758Z AUTO 00000KT 10SM BKN200 15/05 A3010 RMK AO2 SLP196 T01490054 10149 20055 57017
Loading
Personal Weather Stations






























Interactive Weather Map New forecast layout! Learn more

10-Day Weather Forecast

Advertisements
Track Severe Weather on mobile